Time;durP1;ratioP1;P1;durP2;ratioP2;P2;SDS_P1;SDS_P2;PMS_P1;PMS_P2;Temp;Humidity;BMP_temperature;BMP_pressure;BME280_temperature;BME280_humidity;BME280_pressure;Samples;Min_cycle;Max_cycle;Signal;HPM_P1;HPM_P2
2023/05/19 00:00:55;;;;;;;3.80;1.23;;;10.30;99.90;;;;;;5023423;28;20045;-81
2023/05/19 00:03:21;;;;;;;2.05;1.33;;;10.20;99.90;;;;;;5025372;28;20095;-81
2023/05/19 00:05:47;;;;;;;4.65;2.38;;;10.20;99.90;;;;;;5024053;28;20042;-82
2023/05/19 00:08:16;;;;;;;6.90;2.17;;;10.20;99.90;;;;;;5024159;28;20563;-81
2023/05/19 00:10:42;;;;;;;2.00;1.33;;;10.20;99.90;;;;;;5018496;28;20045;-80
2023/05/19 00:13:08;;;;;;;3.15;2.85;;;10.10;99.90;;;;;;5005371;28;20041;-81
2023/05/19 00:15:34;;;;;;;4.50;1.42;;;10.10;99.90;;;;;;5004222;28;20061;-80
2023/05/19 00:17:59;;;;;;;2.45;1.80;;;10.10;99.90;;;;;;5005337;28;20316;-81
2023/05/19 00:20:25;;;;;;;2.60;1.20;;;10.10;99.90;;;;;;5012929;28;20432;-81
2023/05/19 00:22:51;;;;;;;2.55;1.52;;;10.10;99.90;;;;;;5024039;28;20045;-82
2023/05/19 00:25:16;;;;;;;3.75;1.63;;;10.10;99.90;;;;;;5023366;28;20605;-82
2023/05/19 00:27:42;;;;;;;3.78;1.45;;;10.10;99.90;;;;;;5022959;28;20041;-80
2023/05/19 00:30:08;;;;;;;4.85;1.52;;;10.10;99.90;;;;;;5023099;28;20079;-82
2023/05/19 00:32:34;;;;;;;6.45;2.40;;;10.10;99.90;;;;;;5006318;28;20476;-80
2023/05/19 00:34:59;;;;;;;5.28;1.73;;;10.10;99.90;;;;;;5023394;28;20047;-81
2023/05/19 00:37:25;;;;;;;4.18;1.38;;;10.10;99.90;;;;;;5007595;28;20709;-81
2023/05/19 00:39:51;;;;;;;4.88;1.75;;;10.10;99.90;;;;;;5024824;28;20381;-81
2023/05/19 00:42:16;;;;;;;2.85;1.92;;;10.00;99.90;;;;;;5023151;28;20038;-81
2023/05/19 00:44:42;;;;;;;2.60;1.63;;;10.10;99.90;;;;;;5023579;28;20531;-81
2023/05/19 00:47:08;;;;;;;3.45;1.60;;;10.00;99.90;;;;;;5022855;28;20127;-82
2023/05/19 00:49:34;;;;;;;7.55;1.90;;;10.10;99.90;;;;;;5024261;28;20426;-81
2023/05/19 00:52:00;;;;;;;3.63;1.60;;;10.00;99.90;;;;;;5022764;28;20041;-81
2023/05/19 00:54:27;;;;;;;4.90;1.60;;;10.10;99.90;;;;;;5012171;28;20046;-82
2023/05/19 00:56:57;;;;;;;4.28;1.77;;;10.00;99.90;;;;;;5005126;28;20120;-81
2023/05/19 00:59:23;;;;;;;3.58;2.30;;;10.00;99.90;;;;;;5006126;28;20084;-82
2023/05/19 01:01:48;;;;;;;4.55;1.63;;;10.00;99.90;;;;;;5022948;28;20065;-81
2023/05/19 01:04:19;;;;;;;3.20;1.48;;;10.00;99.90;;;;;;5006310;28;20053;-81
2023/05/19 01:06:48;;;;;;;3.33;1.60;;;10.00;99.90;;;;;;5090219;22;20053;-81
2023/05/19 01:09:15;;;;;;;3.88;1.80;;;10.00;99.90;;;;;;5051771;28;20121;-81
2023/05/19 01:11:41;;;;;;;1.98;1.25;;;10.00;99.90;;;;;;5069753;28;20032;-80
2023/05/19 01:14:06;;;;;;;2.63;1.20;;;10.00;99.90;;;;;;5063973;28;20101;-81
2023/05/19 01:16:58;;;;;;;4.13;1.58;;;10.00;99.90;;;;;;5061707;28;20040;-80
2023/05/19 01:19:42;;;;;;;3.40;1.92;;;10.00;99.90;;;;;;5055757;28;20056;-81
2023/05/19 01:22:35;;;;;;;2.65;1.13;;;10.00;99.90;;;;;;5062367;28;20049;-81
2023/05/19 01:25:28;;;;;;;12.93;1.95;;;10.00;99.90;;;;;;5062481;28;20530;-81
2023/05/19 01:28:18;;;;;;;3.67;1.77;;;9.90;99.90;;;;;;5062548;28;20044;-80
2023/05/19 01:30:47;;;;;;;2.17;1.88;;;9.90;99.90;;;;;;5057598;28;20055;-80
2023/05/19 01:33:14;;;;;;;2.38;1.33;;;9.90;99.90;;;;;;5062050;28;20062;-81
2023/05/19 01:35:41;;;;;;;5.70;1.70;;;9.90;99.90;;;;;;5063192;28;20052;-80
2023/05/19 01:38:09;;;;;;;5.22;1.67;;;9.90;99.90;;;;;;5045726;28;20086;-80
2023/05/19 01:40:38;;;;;;;3.35;1.95;;;9.80;99.90;;;;;;5058523;28;20045;-80
2023/05/19 01:43:06;;;;;;;1.98;1.50;;;9.80;99.90;;;;;;5050203;28;20052;-81
2023/05/19 01:45:33;;;;;;;5.13;1.60;;;9.80;99.90;;;;;;5042533;28;20037;-80
2023/05/19 01:48:01;;;;;;;3.20;1.38;;;9.80;99.90;;;;;;5043172;28;20112;-81
2023/05/19 01:50:27;;;;;;;4.28;1.52;;;9.80;99.90;;;;;;5042024;28;20045;-81
2023/05/19 01:52:53;;;;;;;2.15;1.60;;;9.80;99.90;;;;;;5051923;28;20037;-81
2023/05/19 01:55:20;;;;;;;2.20;1.67;;;9.80;99.90;;;;;;5063469;28;20045;-81
2023/05/19 01:58:00;;;;;;;2.08;1.15;;;9.80;99.90;;;;;;5062779;28;20639;-80
2023/05/19 02:00:41;;;;;;;5.15;1.30;;;9.70;99.90;;;;;;5061647;28;20855;-81
2023/05/19 02:03:06;;;;;;;4.97;1.58;;;9.80;99.90;;;;;;5043643;28;20051;-81
2023/05/19 02:05:44;;;;;;;3.03;1.08;;;9.70;99.90;;;;;;5049949;28;20053;-81
2023/05/19 02:08:15;;;;;;;2.75;1.75;;;9.80;99.90;;;;;;5062845;28;20088;-80
2023/05/19 02:10:47;;;;;;;2.97;1.37;;;9.80;99.90;;;;;;5052391;28;20040;-81
2023/05/19 02:13:15;;;;;;;3.58;1.17;;;9.70;99.90;;;;;;5043188;28;20052;-79
2023/05/19 02:15:42;;;;;;;2.58;1.20;;;9.70;99.90;;;;;;5047506;28;20044;-80
2023/05/19 02:18:10;;;;;;;2.22;1.35;;;9.70;99.90;;;;;;5062859;28;20045;-81
2023/05/19 02:20:37;;;;;;;5.65;1.90;;;9.70;99.90;;;;;;5062695;28;20499;-80
2023/05/19 02:23:03;;;;;;;2.45;1.70;;;9.70;99.90;;;;;;5062828;28;20052;-80
2023/05/19 02:25:29;;;;;;;2.35;1.40;;;9.70;99.90;;;;;;5063048;28;20409;-80
2023/05/19 02:27:54;;;;;;;5.13;1.63;;;9.60;99.90;;;;;;5063372;28;20601;-82
2023/05/19 02:30:20;;;;;;;3.38;1.27;;;9.70;99.90;;;;;;5060834;28;20098;-81
2023/05/19 02:32:46;;;;;;;5.38;1.67;;;9.60;99.90;;;;;;5061509;28;20063;-80
2023/05/19 02:35:12;;;;;;;3.15;1.63;;;9.60;99.90;;;;;;5062687;28;20457;-80
2023/05/19 02:37:38;;;;;;;4.25;1.77;;;9.60;99.90;;;;;;5060029;28;20048;-81
2023/05/19 02:40:04;;;;;;;4.47;1.50;;;9.60;99.90;;;;;;5049840;28;20087;-80
2023/05/19 02:42:30;;;;;;;4.80;1.33;;;9.60;99.90;;;;;;5062479;28;20536;-81
2023/05/19 02:44:56;;;;;;;3.65;1.60;;;9.50;99.90;;;;;;5044316;28;20040;-81
2023/05/19 02:47:21;;;;;;;2.92;1.35;;;9.50;99.90;;;;;;5061921;28;20040;-81
2023/05/19 02:49:47;;;;;;;3.60;1.38;;;9.50;99.90;;;;;;5056794;28;20044;-81
2023/05/19 02:52:13;;;;;;;5.10;1.67;;;9.50;99.90;;;;;;5047611;28;20387;-80
2023/05/19 02:54:38;;;;;;;2.85;1.20;;;9.50;99.90;;;;;;5062396;28;20045;-81
2023/05/19 02:57:04;;;;;;;6.55;2.58;;;9.50;99.90;;;;;;5054836;28;20077;-80
2023/05/19 02:59:30;;;;;;;2.97;1.35;;;9.50;99.90;;;;;;5041572;28;20036;-81
2023/05/19 03:01:58;;;;;;;4.10;1.20;;;9.50;99.90;;;;;;5042868;28;20486;-80
2023/05/19 03:04:24;;;;;;;5.07;1.08;;;9.50;99.90;;;;;;5042797;28;20116;-81
2023/05/19 03:06:50;;;;;;;4.32;1.83;;;9.50;99.90;;;;;;5041591;28;20116;-81
2023/05/19 03:09:15;;;;;;;5.75;2.45;;;9.50;99.90;;;;;;5052639;28;20106;-81
2023/05/19 03:11:41;;;;;;;3.70;1.55;;;9.50;99.90;;;;;;5074487;28;20540;-81
2023/05/19 03:14:12;;;;;;;4.45;1.30;;;9.40;99.90;;;;;;5028623;28;20045;-81
2023/05/19 03:16:39;;;;;;;5.45;1.90;;;9.40;99.90;;;;;;5044974;28;20064;-79
2023/05/19 03:19:05;;;;;;;2.40;1.60;;;9.40;99.90;;;;;;5064729;28;20118;-80
2023/05/19 03:21:31;;;;;;;5.35;2.10;;;9.30;99.90;;;;;;5065456;28;20486;-81
2023/05/19 03:23:57;;;;;;;7.93;1.38;;;9.30;99.90;;;;;;5066093;28;20036;-81
2023/05/19 03:26:23;;;;;;;3.47;1.48;;;9.30;99.90;;;;;;5065000;28;20075;-81
2023/05/19 03:28:48;;;;;;;5.30;2.28;;;9.30;99.90;;;;;;5066032;28;20498;-81
2023/05/19 03:31:15;;;;;;;2.88;1.73;;;9.30;99.90;;;;;;5064120;28;20044;-81
2023/05/19 03:33:40;;;;;;;3.83;1.70;;;9.30;99.90;;;;;;5065486;28;20041;-81
2023/05/19 03:36:06;;;;;;;3.83;2.08;;;9.30;99.90;;;;;;5066000;28;20058;-81
2023/05/19 03:38:32;;;;;;;2.75;1.45;;;9.20;99.90;;;;;;5062846;28;20021;-81
2023/05/19 03:40:57;;;;;;;1.90;1.80;;;9.30;99.90;;;;;;5058877;28;20635;-81
2023/05/19 03:43:23;;;;;;;3.03;2.13;;;9.30;99.90;;;;;;5058955;28;20054;-81
2023/05/19 03:45:49;;;;;;;4.30;1.77;;;9.30;99.90;;;;;;5063068;28;20044;-80
2023/05/19 03:48:14;;;;;;;2.78;1.85;;;9.30;99.90;;;;;;5064462;28;20048;-81
2023/05/19 03:50:41;;;;;;;11.73;2.85;;;9.30;99.90;;;;;;5064200;28;20048;-80
2023/05/19 03:53:07;;;;;;;5.68;2.15;;;9.30;99.90;;;;;;5064087;28;20047;-81
2023/05/19 03:55:32;;;;;;;3.40;2.05;;;9.30;99.90;;;;;;5064788;28;20127;-81
2023/05/19 03:57:58;;;;;;;4.60;1.30;;;9.30;99.90;;;;;;5051319;28;20048;-80
2023/05/19 04:00:23;;;;;;;4.38;2.17;;;9.40;99.90;;;;;;5046942;28;20095;-81
2023/05/19 04:02:50;;;;;;;3.08;2.20;;;9.40;99.90;;;;;;5058654;28;20041;-81
2023/05/19 04:05:15;;;;;;;7.82;3.08;;;9.40;99.90;;;;;;5045397;28;20246;-81
2023/05/19 04:07:41;;;;;;;3.33;1.52;;;9.30;99.90;;;;;;5054485;28;20502;-81
2023/05/19 04:10:07;;;;;;;4.38;1.60;;;9.30;99.90;;;;;;5064436;28;20044;-81
2023/05/19 04:12:33;;;;;;;2.67;1.20;;;9.40;99.90;;;;;;5062993;28;20483;-81
2023/05/19 04:14:59;;;;;;;3.30;1.83;;;9.40;99.90;;;;;;5044429;28;20116;-82
2023/05/19 04:17:25;;;;;;;2.53;1.98;;;9.40;99.90;;;;;;5047950;28;20061;-80
2023/05/19 04:19:54;;;;;;;13.77;2.03;;;9.40;99.90;;;;;;5046025;28;20040;-80
2023/05/19 04:22:20;;;;;;;2.97;1.33;;;9.50;99.90;;;;;;5044377;28;20517;-80
2023/05/19 04:24:47;;;;;;;1.73;1.52;;;9.50;99.90;;;;;;5045220;28;20076;-81
2023/05/19 04:27:14;;;;;;;2.55;1.27;;;9.50;99.90;;;;;;5043202;28;20487;-81
2023/05/19 04:29:40;;;;;;;3.60;1.55;;;9.50;99.90;;;;;;5042714;28;20041;-81
2023/05/19 04:32:06;;;;;;;2.70;1.67;;;9.50;99.90;;;;;;5059663;28;20040;-81
2023/05/19 04:34:39;;;;;;;10.80;2.65;;;9.50;99.90;;;;;;5056878;28;20048;-81
2023/05/19 04:37:06;;;;;;;2.85;1.23;;;9.60;99.90;;;;;;5063287;28;20045;-80
2023/05/19 04:39:32;;;;;;;3.10;2.33;;;9.60;99.90;;;;;;5063672;28;20079;-81
2023/05/19 04:41:58;;;;;;;4.85;2.35;;;9.60;99.90;;;;;;5065018;28;20442;-81
2023/05/19 04:44:24;;;;;;;2.70;1.60;;;9.70;99.90;;;;;;5064193;28;20037;-81
2023/05/19 04:46:52;;;;;;;5.38;2.25;;;9.60;99.90;;;;;;5063707;28;20052;-80
2023/05/19 04:49:19;;;;;;;3.38;2.15;;;9.70;99.90;;;;;;5062647;28;20044;-81
2023/05/19 04:51:44;;;;;;;2.85;1.65;;;9.70;99.90;;;;;;5063685;28;20048;-81
2023/05/19 04:54:10;;;;;;;6.82;1.75;;;9.70;99.90;;;;;;5062564;28;20036;-80
2023/05/19 04:56:36;;;;;;;1.58;1.30;;;9.70;99.90;;;;;;5062789;28;20049;-81
2023/05/19 04:59:01;;;;;;;3.88;1.30;;;9.80;99.90;;;;;;5063734;28;20544;-81
2023/05/19 05:01:29;;;;;;;3.65;1.50;;;9.80;99.90;;;;;;5063897;28;20502;-81
2023/05/19 05:03:57;;;;;;;4.18;1.48;;;9.80;99.90;;;;;;5064807;28;20173;-81
2023/05/19 05:06:23;;;;;;;3.38;2.00;;;9.80;99.90;;;;;;5063037;28;20049;-81
2023/05/19 05:08:50;;;;;;;3.50;1.60;;;9.80;99.90;;;;;;5062554;28;20048;-81
2023/05/19 05:11:16;;;;;;;4.70;1.33;;;9.80;99.90;;;;;;5072565;28;20994;-81
2023/05/19 05:13:42;;;;;;;5.18;1.80;;;9.90;99.90;;;;;;5063074;28;20048;-81
2023/05/19 05:16:08;;;;;;;2.35;1.60;;;9.90;99.90;;;;;;5041930;28;20418;-82
2023/05/19 05:18:35;;;;;;;5.55;2.28;;;9.90;99.90;;;;;;5043607;28;20049;-81
2023/05/19 05:21:01;;;;;;;6.43;2.47;;;10.00;99.90;;;;;;5044501;28;20049;-81
2023/05/19 05:23:27;;;;;;;5.80;2.03;;;10.00;99.90;;;;;;5043575;28;20052;-81
2023/05/19 05:25:53;;;;;;;5.10;1.52;;;10.10;99.90;;;;;;5044172;28;20053;-81
2023/05/19 05:28:19;;;;;;;5.00;2.03;;;10.10;99.90;;;;;;5059344;28;20052;-80
2023/05/19 05:30:45;;;;;;;5.18;1.60;;;10.10;99.90;;;;;;5065488;28;20075;-80
2023/05/19 05:33:10;;;;;;;2.97;1.70;;;10.10;99.90;;;;;;5076151;28;20059;-82
2023/05/19 05:35:36;;;;;;;3.65;1.60;;;10.10;99.90;;;;;;5044520;28;20142;-81
2023/05/19 05:38:02;;;;;;;4.15;1.77;;;10.10;99.90;;;;;;5042648;28;20041;-81
2023/05/19 05:40:28;;;;;;;2.63;1.25;;;10.20;99.90;;;;;;5041595;28;20392;-81
2023/05/19 05:42:54;;;;;;;6.43;2.63;;;10.20;99.90;;;;;;5042366;28;20049;-81
2023/05/19 05:45:22;;;;;;;8.30;2.05;;;10.20;99.90;;;;;;5047192;28;20051;-81
2023/05/19 05:47:48;;;;;;;4.80;1.70;;;10.30;99.90;;;;;;5061908;28;20040;-80
2023/05/19 05:50:14;;;;;;;6.55;3.72;;;10.30;99.90;;;;;;5063335;28;20098;-80
2023/05/19 05:52:41;;;;;;;5.38;1.73;;;10.30;99.90;;;;;;5059565;28;20549;-81
2023/05/19 05:55:07;;;;;;;3.20;2.50;;;10.40;99.90;;;;;;5052899;28;20056;-82
2023/05/19 05:57:36;;;;;;;6.70;2.45;;;10.40;99.90;;;;;;5058341;28;20044;-81
2023/05/19 06:00:05;;;;;;;8.77;2.15;;;10.50;99.90;;;;;;5062297;28;20098;-81
2023/05/19 06:02:31;;;;;;;20.98;2.47;;;10.50;99.90;;;;;;5061830;28;20036;-82
2023/05/19 06:04:57;;;;;;;6.78;1.80;;;10.60;99.90;;;;;;5050352;28;20663;-80
2023/05/19 06:07:23;;;;;;;6.35;1.38;;;10.60;99.90;;;;;;5053408;28;20057;-79
2023/05/19 06:09:48;;;;;;;5.88;1.50;;;10.60;99.90;;;;;;5041644;28;20128;-81
2023/05/19 06:12:14;;;;;;;4.28;2.55;;;10.60;99.90;;;;;;5077804;28;20039;-81
2023/05/19 06:14:40;;;;;;;6.18;2.15;;;10.60;99.90;;;;;;5081172;28;20047;-81
2023/05/19 06:17:05;;;;;;;7.40;2.17;;;10.70;99.90;;;;;;5081933;28;20040;-80
2023/05/19 06:19:31;;;;;;;1.65;1.40;;;10.70;99.90;;;;;;5050615;28;20070;-80
2023/05/19 06:21:56;;;;;;;5.45;2.10;;;10.80;99.90;;;;;;5060509;28;20394;-80
2023/05/19 06:24:22;;;;;;;4.20;2.13;;;10.80;99.90;;;;;;5062100;28;20403;-82
2023/05/19 06:26:47;;;;;;;3.05;1.63;;;10.90;99.90;;;;;;5046445;28;20048;-81
2023/05/19 06:29:13;;;;;;;5.95;2.78;;;10.90;99.90;;;;;;5055664;28;20049;-79
2023/05/19 06:31:39;;;;;;;2.08;1.58;;;11.00;99.90;;;;;;5059750;28;20064;-80
2023/05/19 06:34:04;;;;;;;2.20;2.00;;;11.00;99.90;;;;;;5055473;28;20115;-80
2023/05/19 06:36:30;;;;;;;4.95;2.55;;;11.00;99.90;;;;;;5059392;28;20058;-80
2023/05/19 06:38:56;;;;;;;2.38;2.17;;;11.10;99.90;;;;;;5047551;28;20049;-79
2023/05/19 06:41:21;;;;;;;6.15;1.77;;;11.10;99.90;;;;;;5061693;28;20050;-79
2023/05/19 06:43:47;;;;;;;2.60;1.80;;;11.20;99.90;;;;;;5047771;28;20380;-80
2023/05/19 06:46:13;;;;;;;6.15;2.30;;;11.20;99.90;;;;;;5052558;28;20047;-81
2023/05/19 06:48:39;;;;;;;2.97;1.98;;;11.20;99.90;;;;;;5060845;28;20044;-79
2023/05/19 06:51:04;;;;;;;1.83;1.13;;;11.30;99.90;;;;;;5060346;28;20064;-80
2023/05/19 06:53:30;;;;;;;4.10;1.70;;;11.30;99.90;;;;;;5060814;28;20105;-81
2023/05/19 06:55:56;;;;;;;3.47;2.08;;;11.30;99.90;;;;;;5048981;28;20098;-80
2023/05/19 06:58:21;;;;;;;6.18;1.88;;;11.40;99.90;;;;;;5065727;28;20047;-81
2023/05/19 07:00:47;;;;;;;3.33;1.90;;;11.40;99.90;;;;;;5063983;28;20040;-80
2023/05/19 07:03:12;;;;;;;4.43;1.85;;;11.50;99.90;;;;;;5062723;28;20043;-81
2023/05/19 07:05:38;;;;;;;2.55;1.70;;;11.50;99.90;;;;;;5054122;28;20202;-80
2023/05/19 07:08:04;;;;;;;10.85;2.55;;;11.60;99.90;;;;;;5060166;28;20083;-80
2023/05/19 07:10:30;;;;;;;4.93;1.95;;;11.60;99.90;;;;;;5068618;28;20040;-80
2023/05/19 07:12:56;;;;;;;3.95;1.75;;;11.70;99.90;;;;;;5078949;28;20410;-79
2023/05/19 07:15:22;;;;;;;6.32;2.05;;;11.70;99.90;;;;;;5059324;28;20398;-80
2023/05/19 07:17:48;;;;;;;2.28;1.58;;;11.70;99.90;;;;;;5062375;28;20116;-81
2023/05/19 07:20:13;;;;;;;5.60;1.92;;;11.80;99.90;;;;;;5062394;28;20395;-81
2023/05/19 07:22:39;;;;;;;4.53;3.03;;;11.80;99.90;;;;;;5054712;28;20067;-80
2023/05/19 07:25:08;;;;;;;9.10;1.50;;;11.90;99.90;;;;;;5066381;28;20048;-81
2023/05/19 07:27:34;;;;;;;5.55;2.55;;;11.90;99.90;;;;;;5032490;28;20123;-79
2023/05/19 07:30:00;;;;;;;4.28;1.42;;;11.90;99.90;;;;;;5044429;28;20051;-80
2023/05/19 07:32:25;;;;;;;3.85;1.55;;;12.00;99.90;;;;;;5045624;28;20041;-80
2023/05/19 07:34:51;;;;;;;6.18;1.60;;;12.00;99.90;;;;;;5050442;28;20153;-80
2023/05/19 07:37:16;;;;;;;8.85;2.17;;;12.10;99.90;;;;;;5061754;28;20417;-79
2023/05/19 07:39:42;;;;;;;3.78;2.05;;;12.10;99.90;;;;;;5057071;28;20547;-78
2023/05/19 07:42:09;;;;;;;6.05;1.45;;;12.20;99.90;;;;;;5076679;28;20048;-79
2023/05/19 07:44:34;;;;;;;7.93;2.08;;;12.20;99.90;;;;;;5074628;28;20036;-78
2023/05/19 07:47:00;;;;;;;7.10;1.33;;;12.30;99.90;;;;;;5057217;28;20542;-78
2023/05/19 07:49:26;;;;;;;3.95;1.52;;;12.30;99.90;;;;;;5050750;28;20049;-79
2023/05/19 07:51:52;;;;;;;3.88;1.45;;;12.30;99.90;;;;;;5064050;28;20068;-78
2023/05/19 07:54:18;;;;;;;7.35;2.30;;;12.40;99.90;;;;;;5055542;28;20033;-80
2023/05/19 07:56:44;;;;;;;3.03;1.17;;;12.40;99.90;;;;;;5062874;28;20043;-79
2023/05/19 07:59:10;;;;;;;4.03;1.67;;;12.40;99.90;;;;;;5055046;28;20049;-79
2023/05/19 08:01:35;;;;;;;2.35;1.27;;;12.50;99.90;;;;;;5043149;28;20036;-81
2023/05/19 08:04:02;;;;;;;2.88;1.95;;;12.50;99.90;;;;;;5065177;28;20732;-79
2023/05/19 08:06:28;;;;;;;5.90;1.30;;;12.50;99.90;;;;;;5063891;28;20045;-79
2023/05/19 08:08:54;;;;;;;3.85;1.67;;;12.50;99.90;;;;;;5065544;28;20573;-80
2023/05/19 08:11:20;;;;;;;1.65;1.40;;;12.60;99.90;;;;;;5064818;28;20032;-80
2023/05/19 08:13:47;;;;;;;3.80;1.30;;;12.60;99.90;;;;;;5063315;28;20495;-82
2023/05/19 08:16:14;;;;;;;5.43;1.50;;;12.60;99.90;;;;;;5062482;28;20048;-79
2023/05/19 08:18:39;;;;;;;6.90;1.60;;;12.60;99.90;;;;;;5057254;28;20036;-84
2023/05/19 08:21:05;;;;;;;6.22;1.48;;;12.60;99.90;;;;;;5060464;28;20118;-82
2023/05/19 08:23:31;;;;;;;3.30;1.15;;;12.60;99.90;;;;;;5052664;28;20041;-84
2023/05/19 08:25:56;;;;;;;6.75;1.77;;;12.70;99.90;;;;;;5062898;28;20033;-77
2023/05/19 08:28:22;;;;;;;2.35;1.38;;;12.70;99.90;;;;;;5064450;28;20079;-83
2023/05/19 08:30:50;;;;;;;3.88;1.38;;;12.70;99.90;;;;;;5075270;28;20051;-84
2023/05/19 08:33:16;;;;;;;3.72;1.45;;;12.80;99.90;;;;;;5063250;28;20056;-83
2023/05/19 08:35:42;;;;;;;4.40;1.80;;;12.80;99.90;;;;;;5068647;28;20045;-83
2023/05/19 08:38:07;;;;;;;4.38;1.55;;;12.80;99.90;;;;;;5050947;28;20036;-84
2023/05/19 08:40:36;;;;;;;2.10;1.48;;;12.90;99.90;;;;;;5069857;28;20067;-81
2023/05/19 08:43:02;;;;;;;6.03;1.45;;;12.90;99.90;;;;;;5073699;28;20044;-84
2023/05/19 08:45:28;;;;;;;2.75;1.63;;;12.90;99.90;;;;;;5070160;28;20047;-82
2023/05/19 08:47:55;;;;;;;4.18;1.70;;;13.00;99.90;;;;;;5061260;28;20051;-78
2023/05/19 08:50:27;;;;;;;5.80;1.67;;;13.10;99.90;;;;;;5064626;28;20116;-79
2023/05/19 08:53:09;;;;;;;4.82;1.25;;;13.10;99.90;;;;;;5063713;28;20065;-79
2023/05/19 08:55:41;;;;;;;1.75;1.42;;;13.20;99.90;;;;;;5062489;28;20099;-78
2023/05/19 08:58:08;;;;;;;3.25;1.60;;;13.20;99.90;;;;;;5062999;28;20128;-77
2023/05/19 09:00:34;;;;;;;1.83;1.42;;;13.30;99.90;;;;;;5062389;28;20049;-78
2023/05/19 09:03:00;;;;;;;2.53;1.58;;;13.30;99.90;;;;;;5067906;28;20055;-78
2023/05/19 09:05:26;;;;;;;2.28;1.63;;;13.40;99.90;;;;;;5082459;28;20071;-78
2023/05/19 09:07:52;;;;;;;3.97;1.70;;;13.40;99.90;;;;;;5072192;28;20585;-78
2023/05/19 09:10:17;;;;;;;2.42;1.80;;;13.50;99.90;;;;;;5046069;28;20137;-77
2023/05/19 09:12:45;;;;;;;4.75;1.58;;;13.50;99.90;;;;;;5062553;28;20720;-77
2023/05/19 09:15:12;;;;;;;2.42;1.55;;;13.50;99.90;;;;;;5055898;28;20045;-78
2023/05/19 09:17:38;;;;;;;2.83;1.50;;;13.50;99.90;;;;;;5058083;28;20063;-77
2023/05/19 09:20:11;;;;;;;4.15;1.73;;;13.60;99.90;;;;;;5077489;28;20051;-78
2023/05/19 09:22:41;;;;;;;4.63;1.83;;;13.60;99.90;;;;;;5067166;28;20267;-77
2023/05/19 09:25:23;;;;;;;2.03;1.38;;;13.60;99.90;;;;;;5074725;28;20040;-78
2023/05/19 09:27:49;;;;;;;3.90;1.80;;;13.70;99.90;;;;;;5082081;28;20055;-78
2023/05/19 09:30:18;;;;;;;2.63;1.17;;;13.80;99.90;;;;;;5081871;28;20098;-79
2023/05/19 09:32:45;;;;;;;2.42;1.77;;;13.90;99.90;;;;;;5069154;28;20036;-76
2023/05/19 09:35:16;;;;;;;3.95;2.20;;;13.90;99.90;;;;;;5063747;28;20044;-77
2023/05/19 09:37:42;;;;;;;4.43;1.42;;;14.00;99.90;;;;;;5062365;28;20063;-75
2023/05/19 09:40:09;;;;;;;6.60;2.15;;;14.00;99.90;;;;;;5076357;28;20036;-76
2023/05/19 09:42:38;;;;;;;1.90;1.40;;;14.00;99.90;;;;;;5068156;28;20040;-76
2023/05/19 09:45:05;;;;;;;2.42;1.42;;;14.00;99.90;;;;;;5066672;28;20534;-77
2023/05/19 09:47:35;;;;;;;3.08;1.67;;;14.10;99.90;;;;;;5069883;28;20133;-76
2023/05/19 09:50:01;;;;;;;2.15;1.13;;;14.10;99.90;;;;;;5063884;28;20056;-78
2023/05/19 09:52:27;;;;;;;4.47;1.58;;;14.20;99.90;;;;;;5069116;28;20098;-76
2023/05/19 09:54:54;;;;;;;3.20;2.40;;;14.30;99.90;;;;;;5071524;28;20032;-76
2023/05/19 09:57:28;;;;;;;2.65;2.00;;;14.40;99.90;;;;;;5071027;28;20036;-76
2023/05/19 09:59:56;;;;;;;3.55;2.10;;;14.40;99.90;;;;;;5071853;28;20526;-76
2023/05/19 10:02:24;;;;;;;2.95;2.15;;;14.40;99.90;;;;;;5049209;28;20048;-76
2023/05/19 10:04:51;;;;;;;2.55;1.70;;;14.60;99.90;;;;;;5045056;28;20036;-76
2023/05/19 10:07:19;;;;;;;5.63;1.63;;;14.50;99.90;;;;;;5063544;28;20059;-77
2023/05/19 10:09:45;;;;;;;6.50;1.55;;;14.60;99.90;;;;;;5063806;28;20052;-77
2023/05/19 10:12:12;;;;;;;4.57;2.08;;;14.70;99.90;;;;;;5066746;28;20102;-76
2023/05/19 10:14:39;;;;;;;5.25;2.05;;;14.70;99.90;;;;;;5070072;28;20036;-77
2023/05/19 10:17:06;;;;;;;3.42;1.40;;;14.70;99.90;;;;;;5067455;28;20051;-76
2023/05/19 10:19:32;;;;;;;5.85;2.05;;;14.70;99.90;;;;;;5069771;28;20108;-76
2023/05/19 10:21:58;;;;;;;5.22;1.58;;;14.80;99.90;;;;;;5055238;28;20140;-78
2023/05/19 10:24:23;;;;;;;3.78;1.85;;;14.80;99.90;;;;;;5062446;28;20519;-77
2023/05/19 10:26:57;;;;;;;3.78;1.98;;;14.70;99.90;;;;;;5065196;28;20040;-77
2023/05/19 10:29:27;;;;;;;3.35;2.05;;;14.70;99.90;;;;;;5064327;28;20052;-76
2023/05/19 10:31:57;;;;;;;4.05;1.60;;;14.70;99.90;;;;;;5065620;28;20052;-76
2023/05/19 10:34:42;;;;;;;2.65;1.30;;;14.80;99.90;;;;;;5063887;28;20040;-76
2023/05/19 10:37:25;;;;;;;7.63;1.73;;;14.80;99.90;;;;;;5081431;28;20033;-77
2023/05/19 10:39:52;;;;;;;1.73;1.27;;;14.90;99.90;;;;;;5073232;28;20049;-77
2023/05/19 10:42:33;;;;;;;3.13;2.00;;;14.90;99.90;;;;;;5081699;28;20097;-77
2023/05/19 10:45:14;;;;;;;2.28;1.63;;;14.90;99.90;;;;;;5045656;28;20117;-76
2023/05/19 10:47:40;;;;;;;3.35;1.98;;;15.00;99.90;;;;;;5059616;28;20043;-77
2023/05/19 10:50:07;;;;;;;3.20;2.30;;;15.00;99.90;;;;;;5062816;28;20067;-77
2023/05/19 10:52:36;;;;;;;2.10;1.20;;;15.10;99.90;;;;;;5061280;28;20052;-77
2023/05/19 10:55:03;;;;;;;3.03;1.27;;;15.00;99.90;;;;;;5062829;28;20094;-77
2023/05/19 10:57:31;;;;;;;4.82;1.67;;;15.00;99.90;;;;;;5066930;28;20050;-77
2023/05/19 10:59:59;;;;;;;3.67;1.38;;;15.00;99.90;;;;;;5061496;28;20040;-76
2023/05/19 11:02:40;;;;;;;14.40;2.00;;;15.10;99.90;;;;;;5059022;28;20089;-76
2023/05/19 11:05:08;;;;;;;2.67;1.50;;;15.00;99.90;;;;;;5041903;28;20080;-77
2023/05/19 11:07:34;;;;;;;3.67;1.70;;;15.10;99.90;;;;;;5058496;28;20048;-76
2023/05/19 11:10:06;;;;;;;3.97;1.33;;;15.10;99.90;;;;;;5056375;28;20112;-77
2023/05/19 11:12:40;;;;;;;9.48;2.50;;;15.00;99.90;;;;;;5060180;28;20429;-76
2023/05/19 11:15:10;;;;;;;6.60;1.75;;;15.00;99.90;;;;;;5058304;28;20079;-77
2023/05/19 11:17:35;;;;;;;2.58;1.08;;;15.10;99.90;;;;;;5061688;28;20040;-76
2023/05/19 11:20:01;;;;;;;5.40;1.42;;;15.10;99.90;;;;;;5041395;28;20105;-76
2023/05/19 11:22:27;;;;;;;1.38;1.15;;;15.10;99.90;;;;;;5062564;28;20155;-77
2023/05/19 11:24:56;;;;;;;5.65;2.60;;;15.10;99.90;;;;;;5061611;28;20043;-76
2023/05/19 11:27:26;;;;;;;3.65;1.80;;;15.10;99.90;;;;;;5062408;28;20041;-77
2023/05/19 11:29:52;;;;;;;2.30;1.33;;;15.10;99.90;;;;;;5056460;28;20079;-77
2023/05/19 11:32:25;;;;;;;3.40;1.45;;;15.20;99.90;;;;;;5061565;28;20045;-77
2023/05/19 11:34:51;;;;;;;;;;;15.20;99.90;;;;;;5062403;28;20119;-77
2023/05/19 11:37:16;;;;;;;5.50;1.75;;;15.20;99.90;;;;;;5062561;28;20186;-77
2023/05/19 11:39:45;;;;;;;5.00;1.58;;;15.20;99.90;;;;;;5046690;28;20451;-77
2023/05/19 11:42:10;;;;;;;4.43;1.83;;;15.20;99.90;;;;;;5064054;28;20044;-77
2023/05/19 11:44:37;;;;;;;4.57;1.67;;;15.20;99.90;;;;;;5068230;28;20037;-78
2023/05/19 11:47:07;;;;;;;2.85;1.75;;;15.20;99.90;;;;;;5077822;28;20048;-77
2023/05/19 11:49:33;;;;;;;1.80;1.27;;;15.20;99.90;;;;;;5080433;28;20089;-77
2023/05/19 11:52:03;;;;;;;5.85;1.38;;;15.20;99.90;;;;;;5086242;28;20048;-77
2023/05/19 11:54:31;;;;;;;3.53;1.70;;;15.20;99.90;;;;;;5067673;28;20330;-78
2023/05/19 11:57:00;;;;;;;4.03;1.75;;;15.20;99.90;;;;;;5073229;28;20094;-77
2023/05/19 11:59:33;;;;;;;2.78;1.77;;;15.20;99.90;;;;;;5063447;28;20035;-78
2023/05/19 12:02:14;;;;;;;4.50;1.58;;;15.20;99.90;;;;;;5062319;28;20131;-77
2023/05/19 12:04:40;;;;;;;5.13;1.80;;;15.30;99.90;;;;;;5061857;28;20032;-78
2023/05/19 12:07:06;;;;;;;5.88;1.85;;;15.30;99.90;;;;;;5076512;28;20061;-77
2023/05/19 12:09:31;;;;;;;4.43;1.85;;;15.20;99.90;;;;;;5070664;28;20045;-78
2023/05/19 12:11:57;;;;;;;3.67;1.48;;;15.30;99.90;;;;;;5071074;28;20036;-77
2023/05/19 12:14:25;;;;;;;2.15;1.05;;;15.30;99.90;;;;;;5078030;28;20539;-78
2023/05/19 12:16:50;;;;;;;3.35;1.50;;;15.30;99.90;;;;;;5065419;28;20033;-78
2023/05/19 12:19:16;;;;;;;5.45;1.80;;;15.30;99.90;;;;;;5065001;28;20043;-79
2023/05/19 12:21:42;;;;;;;1.67;1.25;;;15.40;99.90;;;;;;5063099;28;20048;-77
2023/05/19 12:24:08;;;;;;;3.08;1.15;;;15.40;99.90;;;;;;5072926;28;20126;-78
2023/05/19 12:26:35;;;;;;;3.72;2.08;;;15.40;99.90;;;;;;5063661;28;20056;-78
2023/05/19 12:29:04;;;;;;;3.13;1.70;;;15.40;99.90;;;;;;5062835;28;20052;-77
2023/05/19 12:31:29;;;;;;;2.42;1.60;;;15.40;99.90;;;;;;5064588;28;20036;-77
2023/05/19 12:33:55;;;;;;;9.15;1.98;;;15.40;99.90;;;;;;5064869;28;20089;-77
2023/05/19 12:36:23;;;;;;;3.10;1.38;;;15.40;99.90;;;;;;5063882;28;20117;-76
2023/05/19 12:38:53;;;;;;;4.82;1.73;;;15.40;99.90;;;;;;5064565;28;20069;-78
2023/05/19 12:41:18;;;;;;;4.85;2.17;;;15.30;99.90;;;;;;5064939;28;20115;-76
2023/05/19 12:43:44;;;;;;;2.45;1.52;;;15.30;99.90;;;;;;5063519;28;20170;-77
2023/05/19 12:46:11;;;;;;;6.78;2.00;;;15.30;99.90;;;;;;5063010;28;20547;-78
2023/05/19 12:48:44;;;;;;;3.17;1.80;;;15.40;99.90;;;;;;5064495;28;20109;-77
2023/05/19 12:51:14;;;;;;;3.40;1.70;;;15.40;99.90;;;;;;5070696;28;20514;-80